sensor_id;sensor_type;location;lat;lon;timestamp;P1;durP1;ratioP1;P2;durP2;ratioP2
45522;SDS011;31254;51.680;5.394;2022-12-10T00:01:14;59.50;;;23.77;;
45522;SDS011;31254;51.680;5.394;2022-12-10T00:03:43;53.73;;;24.13;;
45522;SDS011;31254;51.680;5.394;2022-12-10T00:06:11;54.03;;;24.13;;
45522;SDS011;31254;51.680;5.394;2022-12-10T00:08:40;52.27;;;24.07;;
45522;SDS011;31254;51.680;5.394;2022-12-10T00:11:10;55.77;;;24.63;;
45522;SDS011;31254;51.680;5.394;2022-12-10T00:13:41;58.13;;;24.20;;
45522;SDS011;31254;51.680;5.394;2022-12-10T00:16:09;50.37;;;22.87;;
45522;SDS011;31254;51.680;5.394;2022-12-10T00:18:40;54.73;;;22.97;;
45522;SDS011;31254;51.680;5.394;2022-12-10T00:21:17;49.07;;;23.30;;
45522;SDS011;31254;51.680;5.394;2022-12-10T00:23:46;58.67;;;23.47;;
45522;SDS011;31254;51.680;5.394;2022-12-10T00:28:44;54.57;;;23.60;;
45522;SDS011;31254;51.680;5.394;2022-12-10T00:31:15;51.57;;;23.27;;
45522;SDS011;31254;51.680;5.394;2022-12-10T00:33:43;51.23;;;23.23;;
45522;SDS011;31254;51.680;5.394;2022-12-10T00:36:15;54.20;;;23.27;;
45522;SDS011;31254;51.680;5.394;2022-12-10T00:38:52;52.70;;;23.77;;
45522;SDS011;31254;51.680;5.394;2022-12-10T00:41:19;58.00;;;23.80;;
45522;SDS011;31254;51.680;5.394;2022-12-10T00:43:46;52.77;;;23.70;;
45522;SDS011;31254;51.680;5.394;2022-12-10T00:46:14;54.73;;;24.83;;
45522;SDS011;31254;51.680;5.394;2022-12-10T00:48:43;52.17;;;24.00;;
45522;SDS011;31254;51.680;5.394;2022-12-10T00:51:12;48.87;;;23.57;;
45522;SDS011;31254;51.680;5.394;2022-12-10T00:53:41;51.93;;;23.10;;
45522;SDS011;31254;51.680;5.394;2022-12-10T00:56:09;51.87;;;23.43;;
45522;SDS011;31254;51.680;5.394;2022-12-10T00:58:37;57.60;;;24.70;;
45522;SDS011;31254;51.680;5.394;2022-12-10T01:01:08;64.93;;;24.90;;
45522;SDS011;31254;51.680;5.394;2022-12-10T01:03:41;49.20;;;22.33;;
45522;SDS011;31254;51.680;5.394;2022-12-10T01:06:27;53.87;;;23.70;;
45522;SDS011;31254;51.680;5.394;2022-12-10T01:08:59;54.80;;;23.93;;
45522;SDS011;31254;51.680;5.394;2022-12-10T01:11:30;56.33;;;24.27;;
45522;SDS011;31254;51.680;5.394;2022-12-10T01:13:59;57.70;;;24.90;;
45522;SDS011;31254;51.680;5.394;2022-12-10T01:16:25;58.10;;;24.37;;
45522;SDS011;31254;51.680;5.394;2022-12-10T01:18:53;62.40;;;24.23;;
45522;SDS011;31254;51.680;5.394;2022-12-10T01:21:21;53.70;;;22.80;;
45522;SDS011;31254;51.680;5.394;2022-12-10T01:23:51;55.57;;;23.80;;
45522;SDS011;31254;51.680;5.394;2022-12-10T01:26:19;52.30;;;22.57;;
45522;SDS011;31254;51.680;5.394;2022-12-10T01:28:48;53.33;;;23.00;;
45522;SDS011;31254;51.680;5.394;2022-12-10T01:31:17;55.57;;;23.50;;
45522;SDS011;31254;51.680;5.394;2022-12-10T01:33:46;58.97;;;23.77;;
45522;SDS011;31254;51.680;5.394;2022-12-10T01:36:15;49.63;;;23.57;;
45522;SDS011;31254;51.680;5.394;2022-12-10T01:38:48;53.30;;;23.23;;
45522;SDS011;31254;51.680;5.394;2022-12-10T01:41:24;50.50;;;23.27;;
45522;SDS011;31254;51.680;5.394;2022-12-10T01:46:27;51.03;;;23.83;;
45522;SDS011;31254;51.680;5.394;2022-12-10T01:48:59;57.00;;;23.47;;
45522;SDS011;31254;51.680;5.394;2022-12-10T01:51:28;55.03;;;23.97;;
45522;SDS011;31254;51.680;5.394;2022-12-10T01:53:56;57.87;;;25.00;;
45522;SDS011;31254;51.680;5.394;2022-12-10T01:56:23;58.57;;;24.47;;
45522;SDS011;31254;51.680;5.394;2022-12-10T01:58:53;53.00;;;23.73;;
45522;SDS011;31254;51.680;5.394;2022-12-10T02:04:12;51.07;;;23.33;;
45522;SDS011;31254;51.680;5.394;2022-12-10T02:06:45;60.37;;;23.87;;
45522;SDS011;31254;51.680;5.394;2022-12-10T02:09:42;44.90;;;21.33;;
45522;SDS011;31254;51.680;5.394;2022-12-10T02:12:57;49.97;;;23.03;;
45522;SDS011;31254;51.680;5.394;2022-12-10T02:15:18;49.00;;;23.63;;
45522;SDS011;31254;51.680;5.394;2022-12-10T02:17:59;48.60;;;21.93;;
45522;SDS011;31254;51.680;5.394;2022-12-10T02:20:45;50.53;;;23.37;;
45522;SDS011;31254;51.680;5.394;2022-12-10T02:28:29;58.70;;;23.20;;
45522;SDS011;31254;51.680;5.394;2022-12-10T02:31:03;48.93;;;24.00;;
45522;SDS011;31254;51.680;5.394;2022-12-10T02:33:31;46.60;;;22.03;;
45522;SDS011;31254;51.680;5.394;2022-12-10T02:36:01;58.63;;;24.27;;
45522;SDS011;31254;51.680;5.394;2022-12-10T02:38:30;53.77;;;23.83;;
45522;SDS011;31254;51.680;5.394;2022-12-10T02:41:01;52.43;;;23.73;;
45522;SDS011;31254;51.680;5.394;2022-12-10T02:43:31;55.90;;;23.90;;
45522;SDS011;31254;51.680;5.394;2022-12-10T02:45:59;53.40;;;22.60;;
45522;SDS011;31254;51.680;5.394;2022-12-10T02:48:30;51.53;;;22.73;;
45522;SDS011;31254;51.680;5.394;2022-12-10T02:50:59;56.23;;;23.20;;
45522;SDS011;31254;51.680;5.394;2022-12-10T02:53:25;55.43;;;23.17;;
45522;SDS011;31254;51.680;5.394;2022-12-10T02:58:45;47.97;;;22.57;;
45522;SDS011;31254;51.680;5.394;2022-12-10T03:04:18;49.63;;;21.73;;
45522;SDS011;31254;51.680;5.394;2022-12-10T03:06:58;55.80;;;23.83;;
45522;SDS011;31254;51.680;5.394;2022-12-10T03:09:34;55.00;;;22.70;;
45522;SDS011;31254;51.680;5.394;2022-12-10T03:12:13;55.80;;;24.47;;
45522;SDS011;31254;51.680;5.394;2022-12-10T03:14:45;53.03;;;24.60;;
45522;SDS011;31254;51.680;5.394;2022-12-10T03:17:12;56.73;;;23.83;;
45522;SDS011;31254;51.680;5.394;2022-12-10T03:19:41;57.07;;;23.20;;
45522;SDS011;31254;51.680;5.394;2022-12-10T03:22:12;54.20;;;22.63;;
45522;SDS011;31254;51.680;5.394;2022-12-10T03:24:43;58.43;;;23.60;;
45522;SDS011;31254;51.680;5.394;2022-12-10T03:27:12;57.00;;;24.67;;
45522;SDS011;31254;51.680;5.394;2022-12-10T03:29:45;53.50;;;22.77;;
45522;SDS011;31254;51.680;5.394;2022-12-10T03:32:15;50.73;;;22.70;;
45522;SDS011;31254;51.680;5.394;2022-12-10T03:34:43;58.87;;;23.07;;
45522;SDS011;31254;51.680;5.394;2022-12-10T03:37:11;52.97;;;22.47;;
45522;SDS011;31254;51.680;5.394;2022-12-10T03:39:39;55.07;;;23.40;;
45522;SDS011;31254;51.680;5.394;2022-12-10T03:42:08;58.23;;;23.20;;
45522;SDS011;31254;51.680;5.394;2022-12-10T03:44:35;59.07;;;22.80;;
45522;SDS011;31254;51.680;5.394;2022-12-10T03:47:07;55.30;;;24.60;;
45522;SDS011;31254;51.680;5.394;2022-12-10T03:49:36;82.17;;;24.37;;
45522;SDS011;31254;51.680;5.394;2022-12-10T03:52:03;75.77;;;24.27;;
45522;SDS011;31254;51.680;5.394;2022-12-10T03:54:30;142.67;;;24.40;;
45522;SDS011;31254;51.680;5.394;2022-12-10T03:56:56;64.40;;;23.70;;
45522;SDS011;31254;51.680;5.394;2022-12-10T03:59:25;56.20;;;23.57;;
45522;SDS011;31254;51.680;5.394;2022-12-10T04:01:54;59.57;;;25.43;;
45522;SDS011;31254;51.680;5.394;2022-12-10T04:04:21;81.40;;;26.57;;
45522;SDS011;31254;51.680;5.394;2022-12-10T04:06:50;89.80;;;24.37;;
45522;SDS011;31254;51.680;5.394;2022-12-10T04:09:17;75.87;;;25.53;;
45522;SDS011;31254;51.680;5.394;2022-12-10T04:11:43;75.13;;;26.73;;
45522;SDS011;31254;51.680;5.394;2022-12-10T04:14:10;67.33;;;26.20;;
45522;SDS011;31254;51.680;5.394;2022-12-10T04:16:57;72.43;;;24.77;;
45522;SDS011;31254;51.680;5.394;2022-12-10T04:19:23;86.83;;;25.53;;
45522;SDS011;31254;51.680;5.394;2022-12-10T04:21:50;95.80;;;26.13;;
45522;SDS011;31254;51.680;5.394;2022-12-10T04:24:38;74.13;;;26.27;;
45522;SDS011;31254;51.680;5.394;2022-12-10T04:27:25;72.17;;;26.07;;
45522;SDS011;31254;51.680;5.394;2022-12-10T04:29:52;83.30;;;28.93;;
45522;SDS011;31254;51.680;5.394;2022-12-10T04:32:20;73.47;;;26.60;;
45522;SDS011;31254;51.680;5.394;2022-12-10T04:34:50;89.03;;;28.93;;
45522;SDS011;31254;51.680;5.394;2022-12-10T04:37:16;106.37;;;26.03;;
45522;SDS011;31254;51.680;5.394;2022-12-10T04:39:47;118.57;;;27.73;;
45522;SDS011;31254;51.680;5.394;2022-12-10T04:42:15;106.80;;;27.27;;
45522;SDS011;31254;51.680;5.394;2022-12-10T04:44:42;79.83;;;28.07;;
45522;SDS011;31254;51.680;5.394;2022-12-10T04:47:09;78.00;;;28.00;;
45522;SDS011;31254;51.680;5.394;2022-12-10T04:49:39;77.40;;;26.90;;
45522;SDS011;31254;51.680;5.394;2022-12-10T04:52:10;84.13;;;28.77;;
45522;SDS011;31254;51.680;5.394;2022-12-10T04:54:38;74.97;;;27.87;;
45522;SDS011;31254;51.680;5.394;2022-12-10T04:57:06;71.53;;;27.10;;
45522;SDS011;31254;51.680;5.394;2022-12-10T04:59:34;82.40;;;28.03;;
45522;SDS011;31254;51.680;5.394;2022-12-10T05:02:02;93.63;;;26.03;;
45522;SDS011;31254;51.680;5.394;2022-12-10T05:04:32;70.63;;;27.43;;
45522;SDS011;31254;51.680;5.394;2022-12-10T05:06:59;88.50;;;28.93;;
45522;SDS011;31254;51.680;5.394;2022-12-10T05:09:25;80.03;;;29.80;;
45522;SDS011;31254;51.680;5.394;2022-12-10T05:11:52;75.57;;;27.57;;
45522;SDS011;31254;51.680;5.394;2022-12-10T05:14:19;95.60;;;27.03;;
45522;SDS011;31254;51.680;5.394;2022-12-10T05:16:45;91.77;;;27.57;;
45522;SDS011;31254;51.680;5.394;2022-12-10T05:19:15;81.83;;;26.80;;
45522;SDS011;31254;51.680;5.394;2022-12-10T05:21:42;79.33;;;26.10;;
45522;SDS011;31254;51.680;5.394;2022-12-10T05:24:27;100.50;;;24.20;;
45522;SDS011;31254;51.680;5.394;2022-12-10T05:26:54;100.20;;;27.43;;
45522;SDS011;31254;51.680;5.394;2022-12-10T05:29:20;100.33;;;27.70;;
45522;SDS011;31254;51.680;5.394;2022-12-10T05:31:49;91.80;;;26.60;;
45522;SDS011;31254;51.680;5.394;2022-12-10T05:34:16;85.30;;;26.10;;
45522;SDS011;31254;51.680;5.394;2022-12-10T05:36:45;85.70;;;25.33;;
45522;SDS011;31254;51.680;5.394;2022-12-10T05:39:12;75.70;;;26.20;;
45522;SDS011;31254;51.680;5.394;2022-12-10T05:41:39;76.30;;;26.00;;
45522;SDS011;31254;51.680;5.394;2022-12-10T05:44:07;88.10;;;27.73;;
45522;SDS011;31254;51.680;5.394;2022-12-10T05:46:35;70.20;;;26.90;;
45522;SDS011;31254;51.680;5.394;2022-12-10T05:49:02;79.33;;;26.37;;
45522;SDS011;31254;51.680;5.394;2022-12-10T05:51:31;77.57;;;27.87;;
45522;SDS011;31254;51.680;5.394;2022-12-10T05:54:02;74.23;;;27.73;;
45522;SDS011;31254;51.680;5.394;2022-12-10T05:56:29;86.47;;;27.30;;
45522;SDS011;31254;51.680;5.394;2022-12-10T05:58:57;173.27;;;27.53;;
45522;SDS011;31254;51.680;5.394;2022-12-10T06:01:27;89.33;;;26.70;;
45522;SDS011;31254;51.680;5.394;2022-12-10T06:03:57;124.87;;;26.53;;
45522;SDS011;31254;51.680;5.394;2022-12-10T06:06:27;76.73;;;26.17;;
45522;SDS011;31254;51.680;5.394;2022-12-10T06:08:56;68.57;;;26.00;;
45522;SDS011;31254;51.680;5.394;2022-12-10T06:11:23;67.67;;;27.70;;
45522;SDS011;31254;51.680;5.394;2022-12-10T06:13:50;71.13;;;26.77;;
45522;SDS011;31254;51.680;5.394;2022-12-10T06:16:21;78.60;;;25.43;;
45522;SDS011;31254;51.680;5.394;2022-12-10T06:18:49;122.10;;;25.07;;
45522;SDS011;31254;51.680;5.394;2022-12-10T06:21:16;68.17;;;26.73;;
45522;SDS011;31254;51.680;5.394;2022-12-10T06:23:43;106.60;;;25.83;;
45522;SDS011;31254;51.680;5.394;2022-12-10T06:26:12;83.97;;;25.73;;
45522;SDS011;31254;51.680;5.394;2022-12-10T06:28:46;78.60;;;26.20;;
45522;SDS011;31254;51.680;5.394;2022-12-10T06:31:14;88.77;;;26.97;;
45522;SDS011;31254;51.680;5.394;2022-12-10T06:33:41;86.67;;;28.17;;
45522;SDS011;31254;51.680;5.394;2022-12-10T06:36:11;87.70;;;28.53;;
45522;SDS011;31254;51.680;5.394;2022-12-10T06:38:41;74.53;;;26.93;;
45522;SDS011;31254;51.680;5.394;2022-12-10T06:41:08;90.87;;;26.30;;
45522;SDS011;31254;51.680;5.394;2022-12-10T06:43:37;80.00;;;27.67;;
45522;SDS011;31254;51.680;5.394;2022-12-10T06:46:14;96.70;;;26.90;;
45522;SDS011;31254;51.680;5.394;2022-12-10T06:48:42;95.03;;;29.33;;
45522;SDS011;31254;51.680;5.394;2022-12-10T06:51:10;95.53;;;28.73;;
45522;SDS011;31254;51.680;5.394;2022-12-10T06:53:40;102.70;;;27.37;;
45522;SDS011;31254;51.680;5.394;2022-12-10T06:56:09;111.93;;;28.03;;
45522;SDS011;31254;51.680;5.394;2022-12-10T06:58:39;95.73;;;28.90;;
45522;SDS011;31254;51.680;5.394;2022-12-10T07:01:09;100.97;;;28.03;;
45522;SDS011;31254;51.680;5.394;2022-12-10T07:03:52;112.87;;;30.30;;
45522;SDS011;31254;51.680;5.394;2022-12-10T07:06:21;104.90;;;29.80;;
45522;SDS011;31254;51.680;5.394;2022-12-10T07:08:48;94.27;;;28.57;;
45522;SDS011;31254;51.680;5.394;2022-12-10T07:11:19;87.70;;;28.97;;
45522;SDS011;31254;51.680;5.394;2022-12-10T07:13:47;84.67;;;27.67;;
45522;SDS011;31254;51.680;5.394;2022-12-10T07:16:18;105.77;;;28.63;;
45522;SDS011;31254;51.680;5.394;2022-12-10T07:18:47;101.53;;;28.30;;
45522;SDS011;31254;51.680;5.394;2022-12-10T07:21:20;101.77;;;28.07;;
45522;SDS011;31254;51.680;5.394;2022-12-10T07:23:50;78.30;;;27.07;;
45522;SDS011;31254;51.680;5.394;2022-12-10T07:26:19;103.37;;;27.40;;
45522;SDS011;31254;51.680;5.394;2022-12-10T07:28:47;103.80;;;30.00;;
45522;SDS011;31254;51.680;5.394;2022-12-10T07:31:19;84.53;;;28.03;;
45522;SDS011;31254;51.680;5.394;2022-12-10T07:33:47;81.77;;;27.67;;
45522;SDS011;31254;51.680;5.394;2022-12-10T07:36:14;108.53;;;25.40;;
45522;SDS011;31254;51.680;5.394;2022-12-10T07:38:40;84.93;;;25.00;;
45522;SDS011;31254;51.680;5.394;2022-12-10T07:41:11;76.10;;;25.70;;
45522;SDS011;31254;51.680;5.394;2022-12-10T07:43:39;108.70;;;26.00;;
45522;SDS011;31254;51.680;5.394;2022-12-10T07:46:11;77.47;;;25.23;;
45522;SDS011;31254;51.680;5.394;2022-12-10T07:48:41;77.33;;;24.77;;
45522;SDS011;31254;51.680;5.394;2022-12-10T07:51:09;92.00;;;25.50;;
45522;SDS011;31254;51.680;5.394;2022-12-10T07:53:35;73.10;;;25.87;;
45522;SDS011;31254;51.680;5.394;2022-12-10T07:56:03;80.00;;;25.80;;
45522;SDS011;31254;51.680;5.394;2022-12-10T07:58:30;88.63;;;27.63;;
45522;SDS011;31254;51.680;5.394;2022-12-10T08:00:58;81.47;;;24.73;;
45522;SDS011;31254;51.680;5.394;2022-12-10T08:03:24;96.70;;;26.57;;
45522;SDS011;31254;51.680;5.394;2022-12-10T08:06:04;80.87;;;27.03;;
45522;SDS011;31254;51.680;5.394;2022-12-10T08:08:33;103.23;;;23.93;;
45522;SDS011;31254;51.680;5.394;2022-12-10T08:11:01;90.33;;;24.93;;
45522;SDS011;31254;51.680;5.394;2022-12-10T08:13:28;72.87;;;24.33;;
45522;SDS011;31254;51.680;5.394;2022-12-10T08:16:01;131.17;;;24.40;;
45522;SDS011;31254;51.680;5.394;2022-12-10T08:18:31;75.33;;;25.57;;
45522;SDS011;31254;51.680;5.394;2022-12-10T08:21:03;123.37;;;24.37;;
45522;SDS011;31254;51.680;5.394;2022-12-10T08:23:33;72.83;;;24.30;;
45522;SDS011;31254;51.680;5.394;2022-12-10T08:26:10;87.63;;;26.63;;
45522;SDS011;31254;51.680;5.394;2022-12-10T08:28:38;72.47;;;25.20;;
45522;SDS011;31254;51.680;5.394;2022-12-10T08:31:06;89.33;;;26.93;;
45522;SDS011;31254;51.680;5.394;2022-12-10T08:33:34;76.23;;;25.33;;
45522;SDS011;31254;51.680;5.394;2022-12-10T08:36:04;81.37;;;25.67;;
45522;SDS011;31254;51.680;5.394;2022-12-10T08:38:31;76.27;;;26.73;;
45522;SDS011;31254;51.680;5.394;2022-12-10T08:40:58;79.50;;;26.93;;
45522;SDS011;31254;51.680;5.394;2022-12-10T08:43:30;80.83;;;26.80;;
45522;SDS011;31254;51.680;5.394;2022-12-10T08:46:00;69.57;;;24.87;;
45522;SDS011;31254;51.680;5.394;2022-12-10T08:48:29;96.20;;;24.87;;
45522;SDS011;31254;51.680;5.394;2022-12-10T08:50:56;77.63;;;24.30;;
45522;SDS011;31254;51.680;5.394;2022-12-10T08:53:26;93.47;;;23.27;;
45522;SDS011;31254;51.680;5.394;2022-12-10T08:55:55;77.97;;;23.43;;
45522;SDS011;31254;51.680;5.394;2022-12-10T08:58:22;82.57;;;23.63;;
45522;SDS011;31254;51.680;5.394;2022-12-10T09:00:51;72.20;;;25.33;;
45522;SDS011;31254;51.680;5.394;2022-12-10T09:03:17;68.13;;;25.43;;
45522;SDS011;31254;51.680;5.394;2022-12-10T09:05:44;65.93;;;25.63;;
45522;SDS011;31254;51.680;5.394;2022-12-10T09:08:11;89.97;;;24.13;;
45522;SDS011;31254;51.680;5.394;2022-12-10T09:10:43;62.80;;;23.00;;
45522;SDS011;31254;51.680;5.394;2022-12-10T09:13:15;67.43;;;21.80;;
45522;SDS011;31254;51.680;5.394;2022-12-10T09:15:48;131.83;;;21.77;;
45522;SDS011;31254;51.680;5.394;2022-12-10T09:18:15;55.87;;;21.10;;
45522;SDS011;31254;51.680;5.394;2022-12-10T09:20:42;121.67;;;20.83;;
45522;SDS011;31254;51.680;5.394;2022-12-10T09:23:09;58.83;;;22.87;;
45522;SDS011;31254;51.680;5.394;2022-12-10T09:25:35;78.57;;;21.40;;
45522;SDS011;31254;51.680;5.394;2022-12-10T09:28:02;67.37;;;20.97;;
45522;SDS011;31254;51.680;5.394;2022-12-10T09:30:28;83.07;;;21.43;;
45522;SDS011;31254;51.680;5.394;2022-12-10T09:32:55;63.43;;;19.33;;
45522;SDS011;31254;51.680;5.394;2022-12-10T09:35:22;43.53;;;18.93;;
45522;SDS011;31254;51.680;5.394;2022-12-10T09:37:48;54.40;;;19.50;;
45522;SDS011;31254;51.680;5.394;2022-12-10T09:40:15;80.13;;;20.20;;
45522;SDS011;31254;51.680;5.394;2022-12-10T09:48:10;46.57;;;19.13;;
45522;SDS011;31254;51.680;5.394;2022-12-10T09:51:05;45.17;;;19.57;;
45522;SDS011;31254;51.680;5.394;2022-12-10T09:53:35;45.13;;;19.50;;
45522;SDS011;31254;51.680;5.394;2022-12-10T09:56:14;70.43;;;20.37;;
45522;SDS011;31254;51.680;5.394;2022-12-10T09:58:47;55.43;;;20.50;;
45522;SDS011;31254;51.680;5.394;2022-12-10T10:01:14;53.57;;;20.60;;
45522;SDS011;31254;51.680;5.394;2022-12-10T10:03:44;56.33;;;21.73;;
45522;SDS011;31254;51.680;5.394;2022-12-10T10:06:14;52.60;;;19.53;;
45522;SDS011;31254;51.680;5.394;2022-12-10T10:08:51;47.87;;;20.23;;
45522;SDS011;31254;51.680;5.394;2022-12-10T10:11:22;55.77;;;19.87;;
45522;SDS011;31254;51.680;5.394;2022-12-10T10:13:52;49.60;;;19.97;;
45522;SDS011;31254;51.680;5.394;2022-12-10T10:16:30;56.53;;;20.93;;
45522;SDS011;31254;51.680;5.394;2022-12-10T10:19:12;53.63;;;20.30;;
45522;SDS011;31254;51.680;5.394;2022-12-10T10:21:42;53.03;;;19.17;;
45522;SDS011;31254;51.680;5.394;2022-12-10T10:24:22;50.27;;;20.00;;
45522;SDS011;31254;51.680;5.394;2022-12-10T10:26:52;57.00;;;19.90;;
45522;SDS011;31254;51.680;5.394;2022-12-10T10:29:24;61.93;;;20.10;;
45522;SDS011;31254;51.680;5.394;2022-12-10T10:32:27;53.20;;;18.23;;
45522;SDS011;31254;51.680;5.394;2022-12-10T10:34:57;50.50;;;19.67;;
45522;SDS011;31254;51.680;5.394;2022-12-10T10:37:26;50.47;;;20.20;;
45522;SDS011;31254;51.680;5.394;2022-12-10T10:39:55;66.20;;;21.33;;
45522;SDS011;31254;51.680;5.394;2022-12-10T10:42:42;49.53;;;20.60;;
45522;SDS011;31254;51.680;5.394;2022-12-10T10:45:32;46.20;;;19.80;;
45522;SDS011;31254;51.680;5.394;2022-12-10T10:48:06;54.27;;;21.43;;
45522;SDS011;31254;51.680;5.394;2022-12-10T10:50:49;53.90;;;19.03;;
45522;SDS011;31254;51.680;5.394;2022-12-10T10:55:58;46.87;;;17.77;;
45522;SDS011;31254;51.680;5.394;2022-12-10T10:58:31;52.13;;;17.60;;
45522;SDS011;31254;51.680;5.394;2022-12-10T11:00:59;66.67;;;19.60;;
45522;SDS011;31254;51.680;5.394;2022-12-10T11:03:29;51.77;;;18.50;;
45522;SDS011;31254;51.680;5.394;2022-12-10T11:05:59;66.83;;;19.07;;
45522;SDS011;31254;51.680;5.394;2022-12-10T11:08:29;46.93;;;17.37;;
45522;SDS011;31254;51.680;5.394;2022-12-10T11:11:02;58.93;;;17.27;;
45522;SDS011;31254;51.680;5.394;2022-12-10T11:13:34;39.33;;;17.30;;
45522;SDS011;31254;51.680;5.394;2022-12-10T11:16:18;48.80;;;17.50;;
45522;SDS011;31254;51.680;5.394;2022-12-10T11:18:59;43.17;;;18.13;;
45522;SDS011;31254;51.680;5.394;2022-12-10T11:21:29;56.80;;;17.73;;
45522;SDS011;31254;51.680;5.394;2022-12-10T11:23:57;44.57;;;18.37;;
45522;SDS011;31254;51.680;5.394;2022-12-10T11:37:42;49.17;;;17.87;;
45522;SDS011;31254;51.680;5.394;2022-12-10T11:42:51;46.40;;;19.93;;
45522;SDS011;31254;51.680;5.394;2022-12-10T11:51:54;42.23;;;17.47;;
45522;SDS011;31254;51.680;5.394;2022-12-10T11:57:01;55.13;;;19.67;;
45522;SDS011;31254;51.680;5.394;2022-12-10T12:08:02;43.00;;;16.33;;
45522;SDS011;31254;51.680;5.394;2022-12-10T12:13:25;42.30;;;15.93;;
45522;SDS011;31254;51.680;5.394;2022-12-10T12:16:01;41.23;;;17.10;;
45522;SDS011;31254;51.680;5.394;2022-12-10T12:18:39;38.10;;;15.57;;
45522;SDS011;31254;51.680;5.394;2022-12-10T12:21:13;42.70;;;16.20;;
45522;SDS011;31254;51.680;5.394;2022-12-10T12:23:44;45.33;;;16.10;;
45522;SDS011;31254;51.680;5.394;2022-12-10T12:26:39;41.07;;;16.33;;
45522;SDS011;31254;51.680;5.394;2022-12-10T12:29:20;41.03;;;16.30;;
45522;SDS011;31254;51.680;5.394;2022-12-10T12:31:54;43.13;;;17.57;;
45522;SDS011;31254;51.680;5.394;2022-12-10T12:34:46;38.10;;;15.63;;
45522;SDS011;31254;51.680;5.394;2022-12-10T12:37:14;39.90;;;16.47;;
45522;SDS011;31254;51.680;5.394;2022-12-10T12:39:54;42.53;;;17.33;;
45522;SDS011;31254;51.680;5.394;2022-12-10T12:42:31;51.80;;;17.00;;
45522;SDS011;31254;51.680;5.394;2022-12-10T12:47:49;48.97;;;17.87;;
45522;SDS011;31254;51.680;5.394;2022-12-10T12:53:15;45.33;;;17.47;;
45522;SDS011;31254;51.680;5.394;2022-12-10T13:01:48;44.37;;;16.17;;
45522;SDS011;31254;51.680;5.394;2022-12-10T13:04:24;44.67;;;15.77;;
45522;SDS011;31254;51.680;5.394;2022-12-10T13:09:44;42.77;;;16.77;;
45522;SDS011;31254;51.680;5.394;2022-12-10T13:12:26;40.50;;;17.03;;
45522;SDS011;31254;51.680;5.394;2022-12-10T13:23:29;45.20;;;17.17;;
45522;SDS011;31254;51.680;5.394;2022-12-10T13:33:49;48.13;;;18.07;;
45522;SDS011;31254;51.680;5.394;2022-12-10T13:36:35;44.53;;;16.53;;
45522;SDS011;31254;51.680;5.394;2022-12-10T13:41:33;41.10;;;15.27;;
45522;SDS011;31254;51.680;5.394;2022-12-10T13:47:31;47.30;;;17.47;;
45522;SDS011;31254;51.680;5.394;2022-12-10T13:50:05;41.23;;;16.80;;
45522;SDS011;31254;51.680;5.394;2022-12-10T13:52:45;47.63;;;17.23;;
45522;SDS011;31254;51.680;5.394;2022-12-10T14:06:03;44.17;;;16.73;;
45522;SDS011;31254;51.680;5.394;2022-12-10T14:11:35;43.43;;;15.83;;
45522;SDS011;31254;51.680;5.394;2022-12-10T14:14:08;50.60;;;16.60;;
45522;SDS011;31254;51.680;5.394;2022-12-10T14:16:39;40.33;;;15.90;;
45522;SDS011;31254;51.680;5.394;2022-12-10T14:19:07;43.03;;;15.47;;
45522;SDS011;31254;51.680;5.394;2022-12-10T14:21:41;46.03;;;17.20;;
45522;SDS011;31254;51.680;5.394;2022-12-10T14:24:28;45.47;;;16.50;;
45522;SDS011;31254;51.680;5.394;2022-12-10T14:27:24;47.30;;;16.33;;
45522;SDS011;31254;51.680;5.394;2022-12-10T14:29:57;43.83;;;16.63;;
45522;SDS011;31254;51.680;5.394;2022-12-10T14:32:44;44.40;;;16.20;;
45522;SDS011;31254;51.680;5.394;2022-12-10T14:35:17;50.00;;;17.40;;
45522;SDS011;31254;51.680;5.394;2022-12-10T14:37:51;48.37;;;17.00;;
45522;SDS011;31254;51.680;5.394;2022-12-10T14:43:04;49.83;;;18.77;;
45522;SDS011;31254;51.680;5.394;2022-12-10T14:48:22;46.67;;;16.70;;
45522;SDS011;31254;51.680;5.394;2022-12-10T14:50:50;59.53;;;18.87;;
45522;SDS011;31254;51.680;5.394;2022-12-10T14:53:27;45.40;;;17.07;;
45522;SDS011;31254;51.680;5.394;2022-12-10T14:56:04;53.60;;;17.33;;
45522;SDS011;31254;51.680;5.394;2022-12-10T14:58:44;48.60;;;18.03;;
45522;SDS011;31254;51.680;5.394;2022-12-10T15:01:22;47.50;;;17.37;;
45522;SDS011;31254;51.680;5.394;2022-12-10T15:03:58;51.43;;;18.30;;
45522;SDS011;31254;51.680;5.394;2022-12-10T15:06:26;58.57;;;19.30;;
45522;SDS011;31254;51.680;5.394;2022-12-10T15:08:54;51.60;;;18.27;;
45522;SDS011;31254;51.680;5.394;2022-12-10T15:11:24;52.17;;;17.73;;
45522;SDS011;31254;51.680;5.394;2022-12-10T15:13:56;47.80;;;17.83;;
45522;SDS011;31254;51.680;5.394;2022-12-10T15:16:38;53.27;;;19.20;;
45522;SDS011;31254;51.680;5.394;2022-12-10T15:22:18;49.23;;;18.37;;
45522;SDS011;31254;51.680;5.394;2022-12-10T15:24:46;54.77;;;17.83;;
45522;SDS011;31254;51.680;5.394;2022-12-10T15:27:20;51.07;;;17.50;;
45522;SDS011;31254;51.680;5.394;2022-12-10T15:29:49;51.87;;;18.20;;
45522;SDS011;31254;51.680;5.394;2022-12-10T15:32:21;59.87;;;20.93;;
45522;SDS011;31254;51.680;5.394;2022-12-10T15:34:53;52.33;;;17.67;;
45522;SDS011;31254;51.680;5.394;2022-12-10T15:37:43;47.33;;;17.07;;
45522;SDS011;31254;51.680;5.394;2022-12-10T15:40:28;48.07;;;19.10;;
45522;SDS011;31254;51.680;5.394;2022-12-10T15:43:09;49.13;;;16.97;;
45522;SDS011;31254;51.680;5.394;2022-12-10T15:45:40;51.33;;;18.07;;
45522;SDS011;31254;51.680;5.394;2022-12-10T15:48:10;51.50;;;17.47;;
45522;SDS011;31254;51.680;5.394;2022-12-10T15:50:39;56.07;;;19.20;;
45522;SDS011;31254;51.680;5.394;2022-12-10T15:53:12;62.07;;;18.43;;
45522;SDS011;31254;51.680;5.394;2022-12-10T15:55:42;56.83;;;20.17;;
45522;SDS011;31254;51.680;5.394;2022-12-10T15:58:12;55.63;;;18.63;;
45522;SDS011;31254;51.680;5.394;2022-12-10T16:00:40;56.13;;;18.77;;
45522;SDS011;31254;51.680;5.394;2022-12-10T16:03:11;61.57;;;20.90;;
45522;SDS011;31254;51.680;5.394;2022-12-10T16:05:39;61.87;;;18.67;;
45522;SDS011;31254;51.680;5.394;2022-12-10T16:10:55;59.37;;;20.17;;
45522;SDS011;31254;51.680;5.394;2022-12-10T16:13:26;56.73;;;19.50;;
45522;SDS011;31254;51.680;5.394;2022-12-10T16:16:09;63.73;;;21.83;;
45522;SDS011;31254;51.680;5.394;2022-12-10T16:18:37;61.37;;;19.90;;
45522;SDS011;31254;51.680;5.394;2022-12-10T16:21:04;59.47;;;19.90;;
45522;SDS011;31254;51.680;5.394;2022-12-10T16:23:31;68.03;;;25.43;;
45522;SDS011;31254;51.680;5.394;2022-12-10T16:26:04;70.57;;;23.10;;
45522;SDS011;31254;51.680;5.394;2022-12-10T16:28:39;70.93;;;21.93;;
45522;SDS011;31254;51.680;5.394;2022-12-10T16:31:07;59.83;;;19.47;;
45522;SDS011;31254;51.680;5.394;2022-12-10T16:33:39;68.37;;;20.60;;
45522;SDS011;31254;51.680;5.394;2022-12-10T16:36:09;70.07;;;21.30;;
45522;SDS011;31254;51.680;5.394;2022-12-10T16:38:37;64.80;;;22.07;;
45522;SDS011;31254;51.680;5.394;2022-12-10T16:41:15;80.67;;;24.17;;
45522;SDS011;31254;51.680;5.394;2022-12-10T16:43:44;65.67;;;21.90;;
45522;SDS011;31254;51.680;5.394;2022-12-10T16:46:11;71.53;;;21.60;;
45522;SDS011;31254;51.680;5.394;2022-12-10T16:48:39;71.53;;;21.47;;